BE557 / G-PRPO 7700 Squawk Report (20th of November, 2019)

Aircraft DH8D Reg No. G-PRPO Age N/A
Model DHC-8 Turboprop engines 2 First flight N/A
Registered 12-05-17 Rollout N/A Delivered 31-07-08
Construction No. 4214 Line No. N/A Series Q-402
ADSHEX 4072B7 Airline name FlyBE Owner N/A
Airfield based Exeter~Devon~G First tracked 2017-07-21 20:37:00

Flight history for G-PRPO

Route Flight No Date Playback
Edinburgh (EDI) - Heathrow (LHR) BE2103 2019-12-12 08:59:00
Heathrow (LHR) - Edinburgh (EDI) BE2100 2019-12-12 08:20:00
Edinburgh (EDI) - Heathrow (LHR) BE2111 2019-12-12 06:50:00
City (LCY) - Edinburgh (EDI) BE1338 2019-12-11 17:50:00
Edinburgh (EDI) - City (LCY) BE1337 2019-12-11 16:33:00
Belfast City (BHD) - Edinburgh (EDI) BE684 2019-12-11 12:45:00
Edinburgh (EDI) - Belfast City (BHD) BE683 2019-12-11 12:00:00
Belfast City (BHD) - Edinburgh (EDI) BE682 2019-12-11 10:35:00
Belfast City (BHD) - Birmingham (BHX) BE805 2019-12-11 09:01:00
Birmingham (BHX) - Isle Of Man (IOM) BE230 2019-12-11 07:40:00
Edinburgh (EDI) - Heathrow (LHR) BE2109 2019-12-10 20:19:00
Belfast City (BHD) - Edinburgh (EDI) BE686 2019-12-10 17:37:00
Edinburgh (EDI) - Belfast City (BHD) BE685 2019-12-10 16:50:00
City (LCY) - Edinburgh (EDI) BE1332 2019-12-10 15:23:00
Edinburgh (EDI) - City (LCY) BE1331 2019-12-10 09:28:00
Birmingham (BHX) - Isle Of Man (IOM) BE230 2019-12-10 07:01:00
Edinburgh (EDI) - Heathrow (LHR) BE2109 2019-12-09 19:34:00
Belfast City (BHD) - Edinburgh (EDI) BE686 2019-12-09 18:12:00
Edinburgh (EDI) - Belfast City (BHD) BE685 2019-12-09 16:58:00
Ireland West Knock (NOC) - Edinburgh (EDI) BE656 2019-12-09 14:09:00
Time Lat Lon Altitude Heading Speed Vertical Rate
2019-11-20 14:48:13 GMT 53.335533 -2.856524 0 174 0 0
2019-11-20 14:48:04 GMT 53.335648 -2.856543 0 174 8 0
2019-11-20 14:47:57 GMT 53.335899 -2.856602 0 191 9 0
2019-11-20 14:47:53 GMT 53.336071 -2.856543 0 261 9 0
2019-11-20 14:47:42 GMT 53.336109 -2.855637 0 289 14 0
2019-11-20 14:47:33 GMT 53.335739 -2.855072 0 357 15 0
2019-11-20 14:47:29 GMT 53.335464 -2.855052 0 348 16 0
2019-11-20 14:47:26 GMT 53.335247 -2.854971 0 317 17 0
2019-11-20 14:47:20 GMT 53.335072 -2.854082 0 264 26 0
2019-11-20 14:47:15 GMT 53.335144 -2.852796 0 264 35 0
2019-11-20 14:47:11 GMT 53.335178 -2.852063 0 264 36 0
2019-11-20 14:47:06 GMT 53.335247 -2.850717 0 267 39 0
2019-11-20 14:47:01 GMT 53.335327 -2.848973 0 267 41 0
2019-11-20 14:46:57 GMT 53.335377 -2.847862 0 264 43 0
2019-11-20 14:46:50 GMT 53.335487 -2.845498 0 264 37 0
2019-11-20 14:46:47 GMT 53.335526 -2.844671 0 267 32 0
2019-11-20 14:46:37 GMT 53.335587 -2.842935 0 298 16 0
2019-11-20 14:46:27 GMT 53.335110 -2.842712 0 56 17 0
2019-11-20 14:46:15 GMT 53.334435 -2.844530 0 59 31 0
2019-11-20 14:46:06 GMT 53.333874 -2.846715 0 75 37 0
2019-11-20 14:46:00 GMT 53.333675 -2.848912 0 87 46 0
2019-11-20 14:45:56 GMT 53.333630 -2.850043 0 87 51 0
2019-11-20 14:45:49 GMT 53.333473 -2.853424 0 87 74 0
2019-11-20 14:45:42 GMT 53.333271 -2.857415 275 86 103 -640
2019-11-20 14:45:37 GMT 53.333084 -2.861696 175 85 105 -640
2019-11-20 14:45:29 GMT 53.332764 -2.869158 300 86 104 -384
2019-11-20 14:45:26 GMT 53.332710 -2.870340 300 85 105 -512
2019-11-20 14:45:20 GMT 53.332352 -2.878418 400 86 105 -448
2019-11-20 14:45:16 GMT 53.332352 -2.878418 400 86 105 -448
2019-11-20 14:45:12 GMT 53.332123 -2.883283 450 86 105 -896
2019-11-20 14:45:06 GMT 53.332012 -2.886900 500 87 106 -448
2019-11-20 14:45:02 GMT 53.331940 -2.889718 525 87 107 -576
2019-11-20 14:44:59 GMT 53.331757 -2.895604 575 86 110 -960
2019-11-20 14:44:56 GMT 53.331757 -2.895604 600 85 112 -512
2019-11-20 14:44:52 GMT 53.331528 -2.899135 650 84 112 -576
2019-11-20 14:44:48 GMT 53.331314 -2.902895 700 84 112 -512
2019-11-20 14:44:45 GMT 53.331207 -2.905178 725 84 111 -704
2019-11-20 14:44:41 GMT 53.331070 -2.907846 750 84 111 -448
2019-11-20 14:44:38 GMT 53.330933 -2.910435 775 85 112 -576
2019-11-20 14:44:35 GMT 53.330841 -2.912789 800 85 114 -448
2019-11-20 14:44:31 GMT 53.330475 -2.920586 850 86 116 -896
2019-11-20 14:44:27 GMT 53.330475 -2.920586 875 86 116 -832
2019-11-20 14:44:24 GMT 53.330383 -2.923305 925 86 117 -704
2019-11-20 14:44:21 GMT 53.330292 -2.925659 925 85 118 -640
2019-11-20 14:44:17 GMT 53.330055 -2.929957 1,000 85 125 -256
2019-11-20 14:44:11 GMT 53.329880 -2.934684 1,075 86 131 -448
2019-11-20 14:44:08 GMT 53.329697 -2.939235 1,075 86 130 -704
2019-11-20 14:44:04 GMT 53.329639 -2.941912 1,150 86 131 -960
2019-11-20 14:44:01 GMT 53.329468 -2.945748 1,175 86 131 -960
2019-11-20 14:43:57 GMT 53.329266 -2.950718 1,225 86 130 -1152
2019-11-20 14:43:54 GMT 53.329174 -2.952980 1,275 86 130 -832
2019-11-20 14:43:51 GMT 53.329124 -2.954838 1,350 85 130 -1024
2019-11-20 14:43:48 GMT 53.328918 -2.958697 1,375 85 130 -1152
2019-11-20 14:43:45 GMT 53.328827 -2.961522 1,425 86 131 -832
2019-11-20 14:43:42 GMT 53.328663 -2.965258 1,475 86 134 -576
2019-11-20 14:43:38 GMT 53.328522 -2.968974 1,500 86 136 -320
2019-11-20 14:43:35 GMT 53.328369 -2.972194 1,525 86 140 -192
2019-11-20 14:43:31 GMT 53.328243 -2.975760 1,550 86 145 -256
2019-11-20 14:43:28 GMT 53.328049 -2.979885 1,550 85 148 -192
2019-11-20 14:43:25 GMT 53.327915 -2.983354 1,550 85 149 -320
2019-11-20 14:43:22 GMT 53.327774 -2.986555 1,600 85 150 -704
2019-11-20 14:43:18 GMT 53.327496 -2.992320 1,675 85 151 -960
2019-11-20 14:43:15 GMT 53.327362 -2.995187 1,725 85 154 -640
2019-11-20 14:43:12 GMT 53.327217 -2.998217 1,750 85 158 -1088
2019-11-20 14:43:09 GMT 53.327042 -3.001936 1,825 85 161 -1088
2019-11-20 14:43:06 GMT 53.326843 -3.006215 1,850 85 161 -768
2019-11-20 14:43:03 GMT 53.326675 -3.009391 1,875 84 164 -640
2019-11-20 14:42:59 GMT 53.326145 -3.019301 1,950 85 171 -1024
2019-11-20 14:42:56 GMT 53.326145 -3.019301 2,025 85 172 -768
2019-11-20 14:42:53 GMT 53.326054 -3.021806 2,025 85 172 -960
2019-11-20 14:42:49 GMT 53.325729 -3.028187 2,100 85 173 -1408
2019-11-20 14:42:46 GMT 53.325356 -3.035862 2,200 84 174 -832
2019-11-20 14:42:43 GMT 53.325356 -3.035862 2,200 83 176 -1280
2019-11-20 14:42:40 GMT 53.324982 -3.041173 2,300 83 176 -1088
2019-11-20 14:42:37 GMT 53.324799 -3.043998 2,350 84 175 -1024
2019-11-20 14:42:33 GMT 53.324158 -3.055690 2,450 85 174 -1664
2019-11-20 14:42:29 GMT 53.324158 -3.055690 2,525 85 170 -1856
2019-11-20 14:42:25 GMT 53.323959 -3.060096 2,650 85 167 -384
2019-11-20 14:42:22 GMT 53.323818 -3.063247 2,675 85 167 -192
2019-11-20 14:42:19 GMT 53.323608 -3.067854 2,700 84 169 448
2019-11-20 14:42:16 GMT 53.323399 -3.071244 2,675 83 171 128
2019-11-20 14:42:13 GMT 53.323013 -3.075936 2,675 82 172 -64
2019-11-20 14:42:10 GMT 53.322281 -3.084255 2,675 80 177 -320
2019-11-20 14:42:07 GMT 53.321911 -3.088128 2,675 80 178 -320
2019-11-20 14:42:01 GMT 53.321537 -3.092086 2,700 81 177 -576
2019-11-20 14:41:58 GMT 53.321167 -3.096367 2,725 81 176 -832
2019-11-20 14:41:54 GMT 53.320702 -3.101780 2,775 81 177 -832
2019-11-20 14:41:48 GMT 53.320038 -3.109680 2,900 82 179 -640
2019-11-20 14:41:45 GMT 53.319630 -3.114705 2,925 82 180 -576
2019-11-20 14:41:42 GMT 53.319305 -3.118077 2,950 82 180 -576
2019-11-20 14:41:39 GMT 53.318977 -3.121975 2,975 82 180 -512
2019-11-20 14:41:36 GMT 53.318653 -3.126014 3,000 82 180 -704
2019-11-20 14:41:32 GMT 53.318325 -3.130861 3,025 83 179 -576
2019-11-20 14:41:29 GMT 53.318024 -3.135812 3,075 86 177 -576
2019-11-20 14:41:26 GMT 53.317886 -3.140050 3,100 87 177 -576
2019-11-20 14:41:23 GMT 53.317814 -3.143786 3,125 88 176 -896
2019-11-20 14:41:20 GMT 53.317841 -3.148054 3,175 92 177 -768
2019-11-20 14:41:17 GMT 53.318253 -3.155901 3,225 97 178 -704
2019-11-20 14:41:14 GMT 53.318653 -3.160185 3,275 99 178 -640
2019-11-20 14:41:08 GMT 53.319443 -3.165436 3,325 106 179 -640
2019-11-20 14:41:05 GMT 53.320862 -3.171988 3,350 110 179 -960
2019-11-20 14:41:02 GMT 53.320862 -3.171988 3,450 116 180 -896
2019-11-20 14:40:57 GMT 53.324100 -3.181754 3,500 122 183 -832
2019-11-20 14:40:54 GMT 53.324100 -3.181754 3,525 123 185 -896
2019-11-20 14:40:47 GMT 53.327362 -3.190194 3,600 123 187 -1088
2019-11-20 14:40:43 GMT 53.329731 -3.196052 3,675 123 189 -1024
2019-11-20 14:40:40 GMT 53.330887 -3.199062 3,750 123 189 -1024
2019-11-20 14:40:37 GMT 53.332432 -3.202919 3,775 123 191 -1024
2019-11-20 14:40:34 GMT 53.333691 -3.206069 3,825 123 191 -1024
2019-11-20 14:40:31 GMT 53.335098 -3.209577 3,850 124 193 -1024
2019-11-20 14:40:27 GMT 53.337158 -3.214678 3,950 124 194 -1088
2019-11-20 14:40:24 GMT 53.339230 -3.219802 4,000 124 196 -1152
2019-11-20 14:40:21 GMT 53.342743 -3.228646 4,075 123 198 -1088
2019-11-20 14:40:17 GMT 53.342743 -3.228646 4,175 122 199 -1088
2019-11-20 14:40:14 GMT 53.343933 -3.231628 4,150 122 199 -1024
2019-11-20 14:40:11 GMT 53.345261 -3.235160 4,200 122 200 -1024
2019-11-20 14:40:07 GMT 53.347504 -3.241045 4,300 122 200 -896
2019-11-20 14:40:04 GMT 53.348724 -3.244198 4,350 122 199 -896
2019-11-20 14:39:57 GMT 53.352032 -3.253084 4,450 122 198 -896
2019-11-20 14:39:54 GMT 53.353638 -3.257446 4,500 122 197 -960
2019-11-20 14:39:51 GMT 53.354870 -3.260597 4,550 122 197 -960
2019-11-20 14:39:48 GMT 53.356934 -3.266078 4,600 122 197 -1024
2019-11-20 14:39:44 GMT 53.358501 -3.270291 4,625 122 198 -1024
2019-11-20 14:39:41 GMT 53.359943 -3.274249 4,775 121 201 -1024
2019-11-20 14:39:36 GMT 53.362656 -3.281538 4,800 121 202 -1024
2019-11-20 14:39:32 GMT 53.365112 -3.287982 4,850 122 204 -1088
2019-11-20 14:39:29 GMT 53.365810 -3.289840 4,900 122 205 -1088
2019-11-20 14:39:26 GMT 53.367645 -3.294564 4,950 122 205 -1088
2019-11-20 14:39:23 GMT 53.370255 -3.301470 5,025 122 208 -960
2019-11-20 14:39:16 GMT 53.373352 -3.309389 5,150 122 209 -1024
2019-11-20 14:39:13 GMT 53.374187 -3.311570 5,150 122 209 -1088
2019-11-20 14:39:10 GMT 53.376022 -3.316302 5,375 123 211 -1024
2019-11-20 14:39:06 GMT 53.377773 -3.320698 5,325 123 211 -960
2019-11-20 14:39:03 GMT 53.379456 -3.324934 5,375 123 211 -960
2019-11-20 14:39:00 GMT 53.381916 -3.331039 5,425 123 212 -960
2019-11-20 14:38:57 GMT 53.382889 -3.333566 5,475 123 213 -1088
2019-11-20 14:38:54 GMT 53.384617 -3.337905 5,500 123 214 -1088
2019-11-20 14:38:51 GMT 53.385967 -3.341379 5,550 122 214 -896
2019-11-20 14:38:48 GMT 53.387783 -3.346145 5,600 122 216 -960
2019-11-20 14:38:45 GMT 53.389179 -3.349861 5,650 122 216 -960
2019-11-20 14:38:42 GMT 53.392639 -3.359070 5,725 122 213 -896
2019-11-20 14:38:36 GMT 53.394424 -3.363778 5,800 122 213 -960
2019-11-20 14:38:32 GMT 53.396484 -3.369193 5,875 122 211 -960
2019-11-20 14:38:29 GMT 53.397858 -3.372803 5,900 122 211 -1024
2019-11-20 14:38:26 GMT 53.399235 -3.376276 5,975 123 212 -960
2019-11-20 14:38:23 GMT 53.401062 -3.381042 6,000 123 212 -960
2019-11-20 14:38:19 GMT 53.403259 -3.386693 6,050 123 213 -960
2019-11-20 14:38:16 GMT 53.406261 -3.394371 6,200 123 213 -1088
2019-11-20 14:38:09 GMT 53.409245 -3.402046 6,250 121 215 -1088
2019-11-20 14:38:06 GMT 53.409988 -3.404114 6,350 121 215 -832
2019-11-20 14:38:02 GMT 53.412369 -3.410549 6,600 121 215 -832
2019-11-20 14:37:59 GMT 53.413666 -3.414163 6,400 121 215 -896
2019-11-20 14:37:56 GMT 53.416878 -3.422887 6,450 121 213 -896
2019-11-20 14:37:53 GMT 53.416878 -3.422887 6,500 121 212 -896
2019-11-20 14:37:50 GMT 53.419968 -3.431187 6,575 121 209 -832
2019-11-20 14:37:44 GMT 53.421707 -3.435817 6,850 122 204 -896
2019-11-20 14:37:41 GMT 53.423080 -3.439505 6,725 122 207 -960
2019-11-20 14:37:35 GMT 53.425770 -3.446718 6,775 121 206 -896
2019-11-20 14:37:31 GMT 53.428001 -3.452696 6,875 122 204 -896
2019-11-20 14:37:28 GMT 53.429398 -3.456377 6,975 122 204 -896
2019-11-20 14:37:25 GMT 53.430862 -3.460223 6,950 122 204 -896
2019-11-20 14:37:22 GMT 53.432564 -3.464652 6,975 122 204 -1024
2019-11-20 14:37:19 GMT 53.436035 -3.473798 7,100 122 204 -1152
2019-11-20 14:37:15 GMT 53.436035 -3.473798 7,100 122 204 -1088
2019-11-20 14:37:10 GMT 53.438965 -3.481567 7,225 122 205 -1024
2019-11-20 14:37:07 GMT 53.440292 -3.485170 7,250 122 204 -960
2019-11-20 14:37:04 GMT 53.443359 -3.493338 7,325 122 202 -832
2019-11-20 14:37:01 GMT 53.443359 -3.493338 7,350 122 202 -832
2019-11-20 14:36:58 GMT 53.444504 -3.496242 7,400 123 201 -832
2019-11-20 14:36:55 GMT 53.446346 -3.501003 7,450 124 200 -1024
2019-11-20 14:36:52 GMT 53.447891 -3.504796 7,475 124 200 -1088
2019-11-20 14:36:48 GMT 53.449978 -3.509889 7,575 124 205 -1408
2019-11-20 14:36:44 GMT 53.451839 -3.514413 7,625 124 204 -1408
2019-11-20 14:36:41 GMT 53.453373 -3.518210 7,725 124 208 -1408
2019-11-20 14:36:38 GMT 53.455376 -3.523218 7,725 123 211 -1152
2019-11-20 14:36:35 GMT 53.458633 -3.531377 7,850 123 213 -1152
2019-11-20 14:36:32 GMT 53.460171 -3.535417 7,875 123 214 -1088
2019-11-20 14:36:29 GMT 53.461800 -3.539698 7,950 122 216 -768
2019-11-20 14:36:26 GMT 53.461800 -3.539698 7,975 121 216 -640
2019-11-20 14:36:22 GMT 53.464172 -3.546161 8,025 120 221 -64
2019-11-20 14:36:17 GMT 53.466614 -3.553135 8,025 120 223 -64
2019-11-20 14:36:14 GMT 53.467808 -3.556501 8,025 119 224 0
2019-11-20 14:36:10 GMT 53.470276 -3.563729 8,050 119 227 -128
2019-11-20 14:36:03 GMT 53.473995 -3.574434 8,050 121 229 -64
2019-11-20 14:36:00 GMT 53.475861 -3.579604 8,050 121 231 -192
2019-11-20 14:35:57 GMT 53.477161 -3.583078 8,050 122 234 -256
2019-11-20 14:35:54 GMT 53.478745 -3.587198 8,050 122 235 -256
2019-11-20 14:35:51 GMT 53.480530 -3.591902 8,075 123 239 -704
2019-11-20 14:35:48 GMT 53.482681 -3.597395 8,100 123 243 -832
2019-11-20 14:35:44 GMT 53.484936 -3.603112 8,150 123 246 -704
2019-11-20 14:35:41 GMT 53.486893 -3.608039 8,225 123 250 -768
2019-11-20 14:35:38 GMT 53.489361 -3.614179 8,250 124 252 -896
2019-11-20 14:35:34 GMT 53.491314 -3.619026 8,300 123 254 -1344
2019-11-20 14:35:31 GMT 53.493736 -3.625165 8,375 123 255 -2112
2019-11-20 14:35:27 GMT 53.495865 -3.630511 8,450 123 256 -1984
2019-11-20 14:35:24 GMT 53.498154 -3.636318 8,550 123 257 -1920
2019-11-20 14:35:20 GMT 53.500530 -3.642452 8,725 122 259 -1792
2019-11-20 14:35:17 GMT 53.502457 -3.647461 8,875 123 262 -1728
2019-11-20 14:35:14 GMT 53.504608 -3.653111 8,925 122 264 -1984
2019-11-20 14:35:10 GMT 53.507584 -3.660645 9,025 122 264 -1920
2019-11-20 14:35:07 GMT 53.511063 -3.669591 9,300 123 264 -2048
2019-11-20 14:35:01 GMT 53.516006 -3.682303 9,375 123 264 -2112
2019-11-20 14:34:58 GMT 53.516006 -3.682303 9,475 123 263 -2240
2019-11-20 14:34:55 GMT 53.517380 -3.685678 9,650 123 263 -2304
2019-11-20 14:34:52 GMT 53.519760 -3.691799 9,675 123 262 -1984
2019-11-20 14:34:49 GMT 53.520859 -3.694545 9,775 123 261 -1920
2019-11-20 14:34:46 GMT 53.523575 -3.701585 9,875 123 260 -1728
2019-11-20 14:34:42 GMT 53.526810 -3.709691 10,000 124 260 -1728
2019-11-20 14:34:39 GMT 53.529602 -3.716596 10,075 124 260 -2048
2019-11-20 14:34:36 GMT 53.529602 -3.716596 10,150 124 262 -1920
2019-11-20 14:34:33 GMT 53.531860 -3.722184 10,275 123 262 -2176
2019-11-20 14:34:30 GMT 53.534683 -3.729309 10,400 123 264 -2176
2019-11-20 14:34:26 GMT 53.537075 -3.735352 10,600 123 265 -2048
2019-11-20 14:34:23 GMT 53.538750 -3.739633 10,625 122 267 -1984
2019-11-20 14:34:20 GMT 53.540314 -3.743748 11,025 119 274 -2048
2019-11-20 14:34:17 GMT 53.542282 -3.749006 10,850 121 270 -1984
2019-11-20 14:34:14 GMT 53.544891 -3.756226 11,000 120 271 -2112
2019-11-20 14:34:11 GMT 53.546539 -3.761012 11,100 119 274 -2048
2019-11-20 14:34:08 GMT 53.548527 -3.767018 11,100 118 275 -2048
2019-11-20 14:34:05 GMT 53.550110 -3.771946 11,300 118 278 -2048
2019-11-20 14:33:59 GMT 53.553909 -3.783927 11,500 118 282 -2048
2019-11-20 14:33:56 GMT 53.555790 -3.789799 11,575 118 283 -2048
2019-11-20 14:33:53 GMT 53.557663 -3.795776 11,700 118 284 -2048
2019-11-20 14:33:50 GMT 53.559448 -3.801426 11,775 117 287 -1984
2019-11-20 14:33:47 GMT 53.561279 -3.807155 11,875 117 288 -1920
2019-11-20 14:33:44 GMT 53.565125 -3.819554 12,325 117 292 -1856
2019-11-20 14:33:41 GMT 53.567287 -3.826716 12,125 117 292 -1856
2019-11-20 14:33:38 GMT 53.567287 -3.826716 12,175 116 294 -1920
2019-11-20 14:33:35 GMT 53.569195 -3.833098 12,350 116 296 -1984
2019-11-20 14:33:31 GMT 53.571243 -3.839883 12,425 116 298 -2048
2019-11-20 14:33:28 GMT 53.573090 -3.846000 12,475 116 299 -2048
2019-11-20 14:33:25 GMT 53.575436 -3.853778 12,550 117 300 -2048
2019-11-20 14:33:22 GMT 53.577065 -3.858948 12,700 117 301 -2048
2019-11-20 14:33:19 GMT 53.578835 -3.864845 12,775 117 301 -2112
2019-11-20 14:33:16 GMT 53.580788 -3.871065 12,875 117 302 -1920
2019-11-20 14:33:13 GMT 53.582417 -3.876235 13,000 118 303 -1856
2019-11-20 14:33:10 GMT 53.586731 -3.889631 13,100 118 304 -1984
2019-11-20 14:33:07 GMT 53.586731 -3.889631 13,250 118 305 -1920
2019-11-20 14:33:01 GMT 53.591354 -3.903943 13,400 118 307 -1856
2019-11-20 14:32:58 GMT 53.593048 -3.909328 13,500 118 306 -1856
2019-11-20 14:32:55 GMT 53.594833 -3.914743 13,550 118 306 -1856
2019-11-20 14:32:52 GMT 53.597031 -3.921413 13,675 119 305 -1920
2019-11-20 14:32:48 GMT 53.599316 -3.928097 13,725 119 305 -1984
2019-11-20 14:32:45 GMT 53.603989 -3.941581 13,950 120 302 -2240
2019-11-20 14:32:42 GMT 53.603989 -3.941581 14,000 120 301 -2240
2019-11-20 14:32:39 GMT 53.608673 -3.954917 14,150 120 299 -2176
2019-11-20 14:32:36 GMT 53.608673 -3.954917 14,250 120 296 -2048
2019-11-20 14:32:32 GMT 53.613510 -3.968811 14,575 116 274 -1984
2019-11-20 14:32:28 GMT 53.613510 -3.968811 14,500 119 287 -1984
2019-11-20 14:32:25 GMT 53.615662 -3.975246 14,750 116 279 -1920
2019-11-20 14:32:21 GMT 53.617950 -3.982387 14,875 116 277 -1920
2019-11-20 14:32:18 GMT 53.619736 -3.988194 14,850 116 276 -1984
2019-11-20 14:32:15 GMT 53.621429 -3.993934 14,875 116 274 -2048
2019-11-20 14:32:12 GMT 53.623104 -3.999347 15,175 118 265 -2816
2019-11-20 14:32:09 GMT 53.624874 -4.004921 15,125 117 267 -2880
2019-11-20 14:32:06 GMT 53.627155 -4.012191 15,300 118 265 -2816
2019-11-20 14:32:03 GMT 53.630173 -4.021781 15,500 118 264 -2752
2019-11-20 14:32:00 GMT 53.632278 -4.028294 15,600 118 264 -2752
2019-11-20 14:31:57 GMT 53.632278 -4.028294 15,775 118 264 -2880
2019-11-20 14:31:54 GMT 53.633579 -4.032306 15,825 118 264 -2880
2019-11-20 14:31:51 GMT 53.635437 -4.038025 16,050 118 263 -2880
2019-11-20 14:31:48 GMT 53.637535 -4.044342 16,150 118 263 -2880
2019-11-20 14:31:45 GMT 53.639027 -4.049027 16,250 118 263 -2880
2019-11-20 14:31:42 GMT 53.640980 -4.055005 16,450 118 263 -2880
2019-11-20 14:31:36 GMT 53.644180 -4.064941 16,725 118 262 -2880
2019-11-20 14:31:33 GMT 53.647888 -4.076634 17,125 117 262 -2880
2019-11-20 14:31:30 GMT 53.647888 -4.076634 17,025 117 262 -2816
2019-11-20 14:31:26 GMT 53.650223 -4.084167 17,125 117 261 -2816
2019-11-20 14:31:23 GMT 53.651081 -4.086995 17,300 117 261 -2816
2019-11-20 14:31:20 GMT 53.653408 -4.094508 17,450 117 260 -3008
2019-11-20 14:31:16 GMT 53.656860 -4.105748 17,725 116 259 -2944
2019-11-20 14:31:13 GMT 53.656860 -4.105748 17,800 117 260 -3008
2019-11-20 14:31:09 GMT 53.659195 -4.113517 17,975 117 259 -2880
2019-11-20 14:31:06 GMT 53.660812 -4.118823 18,100 117 259 -2880
2019-11-20 14:31:03 GMT 53.662308 -4.123797 18,250 116 259 -2816
2019-11-20 14:30:59 GMT 53.664627 -4.131667 18,625 116 259 -2816
2019-11-20 14:30:56 GMT 53.666382 -4.137530 18,650 116 259 -2880
2019-11-20 14:30:53 GMT 53.669842 -4.149358 18,875 115 259 -2752
2019-11-20 14:30:49 GMT 53.669842 -4.149358 18,950 115 258 -2816
2019-11-20 14:30:46 GMT 53.671749 -4.156063 19,175 115 258 -2752
2019-11-20 14:30:43 GMT 53.673111 -4.160915 19,775 115 258 -2752
2019-11-20 14:30:39 GMT 53.675568 -4.169554 19,575 115 259 -2752
2019-11-20 14:30:35 GMT 53.677689 -4.177159 19,650 115 258 -2752
2019-11-20 14:30:32 GMT 53.678780 -4.181025 19,775 115 258 -2688
2019-11-20 14:30:29 GMT 53.680115 -4.185634 19,900 116 258 -2688
2019-11-20 14:30:26 GMT 53.682175 -4.192697 20,075 116 258 -2688
2019-11-20 14:30:23 GMT 53.685112 -4.202674 20,450 116 258 -2624
2019-11-20 14:30:20 GMT 53.686707 -4.207999 20,425 116 258 -2624
2019-11-20 14:30:17 GMT 53.688648 -4.214307 20,550 116 258 -2624
2019-11-20 14:30:14 GMT 53.688648 -4.214307 20,600 117 258 -2560
2019-11-20 14:30:08 GMT 53.691605 -4.224086 20,850 118 258 -2496
2019-11-20 14:30:05 GMT 53.693069 -4.228638 21,075 121 257 -2624
2019-11-20 14:30:02 GMT 53.695354 -4.235391 21,125 126 255 -2304
2019-11-20 14:29:57 GMT 53.699020 -4.244568 21,375 126 255 -2368
2019-11-20 14:29:54 GMT 53.700474 -4.247831 21,800 127 255 -2304
2019-11-20 14:29:48 GMT 53.706573 -4.261361 21,675 127 255 -2304
2019-11-20 14:29:45 GMT 53.706573 -4.261361 21,925 127 255 -2368
2019-11-20 14:29:42 GMT 53.710922 -4.271014 21,925 127 255 -2304
2019-11-20 14:29:39 GMT 53.710922 -4.271014 22,075 127 254 -2368
2019-11-20 14:29:36 GMT 53.714035 -4.277998 22,300 127 254 -2240
2019-11-20 14:29:32 GMT 53.716068 -4.282487 22,550 127 254 -2304
2019-11-20 14:29:27 GMT 53.719482 -4.289926 22,550 127 254 -2176
2019-11-20 14:29:24 GMT 53.723377 -4.298562 22,700 127 254 -2368
2019-11-20 14:29:18 GMT 53.728729 -4.310486 23,050 127 255 -2240
2019-11-20 14:29:15 GMT 53.728729 -4.310486 23,000 127 255 -1856
2019-11-20 14:29:11 GMT 53.730827 -4.315203 23,050 126 255 -1856
2019-11-20 14:29:08 GMT 53.733032 -4.320295 23,175 126 257 -1984
2019-11-20 14:29:05 GMT 53.735962 -4.326887 23,325 125 260 -1856
2019-11-20 14:29:01 GMT 53.737904 -4.331360 24,975 127 301 -64
2019-11-20 14:28:57 GMT 53.740768 -4.338030 23,450 125 262 -1856
2019-11-20 14:28:54 GMT 53.743698 -4.344857 23,575 125 264 -1920
2019-11-20 14:28:51 GMT 53.745026 -4.347996 23,625 125 265 -1792
2019-11-20 14:28:48 GMT 53.747040 -4.352705 23,750 127 293 128
2019-11-20 14:28:45 GMT 53.752102 -4.364723 23,875 125 269 -1792
2019-11-20 14:28:42 GMT 53.752102 -4.364723 23,950 125 271 -1664
2019-11-20 14:28:39 GMT 53.755917 -4.373609 24,225 125 272 -1664
2019-11-20 14:28:36 GMT 53.758713 -4.380092 24,200 126 273 -1664
2019-11-20 14:28:33 GMT 53.758713 -4.380092 24,225 126 274 -1536
2019-11-20 14:28:30 GMT 53.761086 -4.385484 24,725 126 281 -1728
2019-11-20 14:28:27 GMT 53.763016 -4.389901 24,350 126 277 -1600
2019-11-20 14:28:24 GMT 53.764996 -4.394531 24,400 126 278 -1600
2019-11-20 14:28:21 GMT 53.767788 -4.400832 24,500 126 280 -1664
2019-11-20 14:28:18 GMT 53.770432 -4.406852 24,575 126 281 -1728
2019-11-20 14:28:15 GMT 53.771942 -4.410226 24,725 126 283 -1920
2019-11-20 14:28:12 GMT 53.774353 -4.415777 24,775 126 285 -1664
2019-11-20 14:28:09 GMT 53.776291 -4.420192 24,825 126 285 -1728
2019-11-20 14:28:06 GMT 53.778961 -4.426440 24,950 126 287 -640
2019-11-20 14:28:03 GMT 53.783012 -4.435649 25,000 126 291 192
2019-11-20 14:28:00 GMT 53.787479 -4.445424 25,000 128 294 0
2019-11-20 14:27:56 GMT 53.787479 -4.445424 25,000 128 294 0
2019-11-20 14:27:53 GMT 53.789574 -4.449948 25,000 127 297 0
2019-11-20 14:27:50 GMT 53.791992 -4.455191 25,000 127 299 64
2019-11-20 14:27:47 GMT 53.794693 -4.461155 25,000 127 303 -64
2019-11-20 14:27:44 GMT 53.797768 -4.468043 25,000 126 305 0
2019-11-20 14:27:41 GMT 53.799362 -4.471592 25,000 126 305 64
2019-11-20 14:27:38 GMT 53.805771 -4.486032 25,000 126 305 64
2019-11-20 14:27:32 GMT 53.807510 -4.490034 25,000 126 304 64
2019-11-20 14:27:29 GMT 53.809685 -4.494862 25,000 126 303 0
2019-11-20 14:27:26 GMT 53.812572 -4.501325 25,000 126 304 64
2019-11-20 14:27:23 GMT 53.818066 -4.513604 25,000 126 303 0
2019-11-20 14:27:19 GMT 53.818066 -4.513604 25,000 126 303 -64
2019-11-20 14:27:16 GMT 53.821518 -4.521502 25,000 126 303 0
2019-11-20 14:27:13 GMT 53.826210 -4.532022 25,000 126 303 0
2019-11-20 14:27:10 GMT 53.826210 -4.532022 25,000 126 303 -64
2019-11-20 14:27:07 GMT 53.828724 -4.537757 25,000 126 303 0
2019-11-20 14:27:04 GMT 53.831936 -4.544947 25,000 126 302 64
2019-11-20 14:27:01 GMT 53.834061 -4.549752 25,000 126 302 64
2019-11-20 14:26:58 GMT 53.835896 -4.553833 25,000 126 302 64
2019-11-20 14:26:55 GMT 53.838409 -4.559488 25,000 126 302 -64
2019-11-20 14:26:52 GMT 53.841248 -4.565869 25,000 127 302 0
2019-11-20 14:26:49 GMT 53.843670 -4.571363 25,000 127 302 0
2019-11-20 14:26:46 GMT 53.846329 -4.577297 25,000 127 302 -64
2019-11-20 14:26:43 GMT 53.848755 -4.582790 25,000 127 301 0
2019-11-20 14:26:40 GMT 53.851135 -4.588048 25,000 127 301 0
2019-11-20 14:26:37 GMT 53.853584 -4.593497 25,000 127 301 64
2019-11-20 14:26:34 GMT 53.855820 -4.598344 25,000 127 300 0
2019-11-20 14:26:31 GMT 53.859680 -4.606907 25,000 127 300 64
2019-11-20 14:26:28 GMT 53.861450 -4.610865 25,000 126 300 0
2019-11-20 14:26:25 GMT 53.863312 -4.614904 25,000 127 299 -64
2019-11-20 14:26:22 GMT 53.866287 -4.621556 25,000 127 299 0
2019-11-20 14:26:18 GMT 53.869366 -4.628314 25,000 126 300 0
2019-11-20 14:26:15 GMT 53.872902 -4.636392 25,000 126 299 -64
2019-11-20 14:26:12 GMT 53.874531 -4.640189 25,000 126 299 -64
2019-11-20 14:26:09 GMT 53.880165 -4.653275 25,000 126 299 0
2019-11-20 14:26:06 GMT 53.880165 -4.653275 25,000 126 299 0
2019-11-20 14:26:03 GMT 53.881805 -4.657104 25,000 126 299 64
2019-11-20 14:26:00 GMT 53.884216 -4.662646 25,000 126 298 64
2019-11-20 14:25:57 GMT 53.886703 -4.668405 25,000 126 298 0
2019-11-20 14:25:54 GMT 53.891190 -4.678685 25,000 126 298 0
2019-11-20 14:25:48 GMT 53.897278 -4.692496 25,000 126 296 0
2019-11-20 14:25:45 GMT 53.899670 -4.697948 25,000 126 296 64
2019-11-20 14:25:42 GMT 53.903091 -4.705680 25,000 126 296 0
2019-11-20 14:25:38 GMT 53.903091 -4.705680 25,000 126 296 0
2019-11-20 14:25:35 GMT 53.906326 -4.713054 25,000 126 296 0
2019-11-20 14:25:32 GMT 53.907772 -4.716366 25,000 126 296 64
2019-11-20 14:25:29 GMT 53.910564 -4.722748 25,000 126 296 64
2019-11-20 14:25:26 GMT 53.912155 -4.726397 25,000 126 296 64
2019-11-20 14:25:23 GMT 53.914196 -4.731149 25,000 126 296 -128
2019-11-20 14:25:20 GMT 53.916710 -4.736965 25,000 126 296 0
2019-11-20 14:25:17 GMT 53.919827 -4.743993 25,000 126 296 64
2019-11-20 14:25:14 GMT 53.922180 -4.749547 25,000 126 296 0
2019-11-20 14:25:11 GMT 53.924332 -4.754412 25,000 126 296 -64
2019-11-20 14:25:08 GMT 53.927181 -4.761038 25,000 126 296 -64
2019-11-20 14:25:05 GMT 53.929184 -4.765555 25,000 126 296 -64
2019-11-20 14:25:02 GMT 53.931793 -4.771702 25,000 126 295 0
2019-11-20 14:24:59 GMT 53.933853 -4.776463 25,000 126 295 0
2019-11-20 14:24:55 GMT 53.937607 -4.785252 25,000 126 295 64
2019-11-20 14:24:52 GMT 53.940170 -4.791170 25,000 126 295 -64
2019-11-20 14:24:49 GMT 53.944565 -4.801339 25,000 126 295 -64
2019-11-20 14:24:46 GMT 53.944565 -4.801339 25,000 126 295 0
2019-11-20 14:24:43 GMT 53.947338 -4.807730 25,000 126 294 0
2019-11-20 14:24:37 GMT 53.952274 -4.819040 25,000 126 295 0
2019-11-20 14:24:34 GMT 53.954910 -4.825117 25,000 129 292 64
2019-11-20 14:24:31 GMT 53.959351 -4.835196 25,000 126 295 -64
2019-11-20 14:24:28 GMT 53.959351 -4.835196 25,000 126 294 64
2019-11-20 14:24:25 GMT 53.961365 -4.839713 25,000 126 294 -64
2019-11-20 14:24:22 GMT 53.963913 -4.845536 25,000 127 294 0
2019-11-20 14:24:19 GMT 53.966473 -4.851191 25,000 127 293 0
2019-11-20 14:24:15 GMT 53.972198 -4.863712 25,000 128 293 64
2019-11-20 14:24:12 GMT 53.975784 -4.871144 25,000 129 292 64
2019-11-20 14:24:09 GMT 53.975784 -4.871144 25,000 130 291 64
2019-11-20 14:24:05 GMT 53.978065 -4.875668 25,000 130 291 0
2019-11-20 14:24:02 GMT 53.981140 -4.881618 25,000 131 290 0
2019-11-20 14:23:59 GMT 53.984676 -4.888270 25,000 132 290 0
2019-11-20 14:23:56 GMT 53.986633 -4.891898 25,000 132 291 -64
2019-11-20 14:23:53 GMT 53.990112 -4.898490 25,000 131 290 -64
2019-11-20 14:23:50 GMT 53.994637 -4.907092 25,000 131 290 0
2019-11-20 14:23:47 GMT 53.994637 -4.907092 25,000 131 290 64
2019-11-20 14:23:44 GMT 53.996872 -4.911293 25,000 131 289 192
2019-11-20 14:23:41 GMT 54.000000 -4.917324 25,000 131 289 192
2019-11-20 14:23:38 GMT 54.002151 -4.921404 25,000 131 288 -256
2019-11-20 14:23:35 GMT 54.004715 -4.926270 25,000 131 288 -128
2019-11-20 14:23:32 GMT 54.007858 -4.932296 25,000 131 287 -64
2019-11-20 14:23:29 GMT 54.010117 -4.936550 25,000 131 286 -64
2019-11-20 14:23:26 GMT 54.012497 -4.941101 25,000 131 285 -64
2019-11-20 14:23:23 GMT 54.016376 -4.948533 25,000 131 285 -64
2019-11-20 14:23:20 GMT 54.018082 -4.951852 25,000 131 284 -64
2019-11-20 14:23:17 GMT 54.020287 -4.956126 25,000 131 283 0
2019-11-20 14:23:14 GMT 54.024242 -4.963801 25,000 131 281 0
2019-11-20 14:23:11 GMT 54.026779 -4.968645 25,000 131 281 0
2019-11-20 14:23:08 GMT 54.031925 -4.978422 25,000 131 280 0
2019-11-20 14:23:05 GMT 54.034515 -4.983477 25,000 131 280 64
2019-11-20 14:23:02 GMT 54.034515 -4.983477 25,000 131 278 0
2019-11-20 14:22:59 GMT 54.036713 -4.987714 25,000 131 277 -64
2019-11-20 14:22:55 GMT 54.040585 -4.995225 25,000 131 277 64
2019-11-20 14:22:52 GMT 54.042297 -4.998622 25,000 130 276 0
2019-11-20 14:22:49 GMT 54.044632 -5.003174 25,000 131 275 0
2019-11-20 14:22:46 GMT 54.047104 -5.007988 25,000 131 272 -64
2019-11-20 14:22:43 GMT 54.049713 -5.013062 25,000 131 273 -64
2019-11-20 14:22:40 GMT 54.052277 -5.018084 25,000 131 272 64
2019-11-20 14:22:37 GMT 54.054222 -5.021802 25,000 131 270 0
2019-11-20 14:22:34 GMT 54.057083 -5.027344 25,000 131 269 0
2019-11-20 14:22:31 GMT 54.059601 -5.032288 25,000 131 266 64
2019-11-20 14:22:27 GMT 54.062897 -5.038487 25,000 132 266 64
2019-11-20 14:22:24 GMT 54.065964 -5.044216 25,000 132 262 192
2019-11-20 14:22:21 GMT 54.068024 -5.048061 25,000 132 263 128
2019-11-20 14:22:18 GMT 54.070084 -5.051828 25,000 132 262 192
2019-11-20 14:22:15 GMT 54.072193 -5.055650 24,975 132 261 256
2019-11-20 14:22:12 GMT 54.077316 -5.065168 24,975 132 256 192
2019-11-20 14:22:06 GMT 54.079880 -5.069955 24,975 132 256 256
2019-11-20 14:22:03 GMT 54.082623 -5.075118 24,950 131 254 320
2019-11-20 14:21:57 GMT 54.087204 -5.083766 24,925 132 250 704
2019-11-20 14:21:53 GMT 54.089905 -5.088867 24,925 132 250 704
2019-11-20 14:21:50 GMT 54.094940 -5.098284 24,850 132 248 1024
2019-11-20 14:21:47 GMT 54.096863 -5.101894 24,800 132 249 960
2019-11-20 14:21:44 GMT 54.099106 -5.106053 24,750 132 249 1024
2019-11-20 14:21:41 GMT 54.101486 -5.110526 24,675 132 249 1024
2019-11-20 14:21:35 GMT 54.106174 -5.119306 24,575 131 248 896
2019-11-20 14:21:32 GMT 54.106174 -5.119306 24,525 132 248 1024
2019-11-20 14:21:29 GMT 54.109203 -5.124961 24,475 132 249 960
2019-11-20 14:21:26 GMT 54.111717 -5.129727 24,475 132 249 960
2019-11-20 14:21:22 GMT 54.113811 -5.133685 24,375 131 248 1024
2019-11-20 14:21:19 GMT 54.116558 -5.138936 24,300 132 249 960
2019-11-20 14:21:16 GMT 54.118469 -5.142465 24,300 132 248 1024
2019-11-20 14:21:11 GMT 54.123119 -5.151215 24,150 132 248 1024
2019-11-20 14:21:07 GMT 54.126251 -5.157061 24,125 132 248 1152
2019-11-20 14:21:04 GMT 54.127853 -5.160043 24,050 132 249 1216
2019-11-20 14:21:01 GMT 54.130508 -5.164987 24,000 132 246 1152
2019-11-20 14:20:58 GMT 54.132660 -5.169067 23,975 132 249 1216
2019-11-20 14:20:55 GMT 54.134674 -5.172834 23,825 132 249 1280
2019-11-20 14:20:52 GMT 54.137054 -5.177307 23,850 132 249 1216
2019-11-20 14:20:49 GMT 54.140167 -5.183114 23,750 132 249 1216
2019-11-20 14:20:45 GMT 54.142673 -5.187890 23,675 132 249 1216
2019-11-20 14:20:39 GMT 54.147949 -5.197867 23,550 131 249 1216
2019-11-20 14:20:36 GMT 54.152309 -5.206146 23,475 131 250 1152
2019-11-20 14:20:33 GMT 54.152309 -5.206146 23,400 131 250 1152
2019-11-20 14:20:30 GMT 54.154587 -5.210502 23,375 131 250 1216
2019-11-20 14:20:27 GMT 54.156830 -5.214739 23,325 131 250 1152
2019-11-20 14:20:24 GMT 54.158642 -5.218183 23,275 131 250 1216
2019-11-20 14:20:20 GMT 54.162689 -5.225857 23,150 131 250 1216
2019-11-20 14:20:16 GMT 54.167450 -5.234907 23,025 131 251 1216
2019-11-20 14:20:10 GMT 54.169811 -5.239348 22,975 132 250 1216
2019-11-20 14:20:07 GMT 54.174606 -5.248476 22,875 132 251 1152
2019-11-20 14:20:04 GMT 54.176750 -5.252434 22,800 132 250 1088
2019-11-20 14:20:01 GMT 54.179218 -5.257120 22,600 132 250 1152
2019-11-20 14:19:58 GMT 54.179218 -5.257120 22,725 132 250 1152
2019-11-20 14:19:55 GMT 54.181503 -5.261431 22,650 132 249 1152
2019-11-20 14:19:52 GMT 54.183975 -5.266061 22,575 132 249 1152
2019-11-20 14:19:49 GMT 54.186081 -5.269985 22,325 132 249 1152
2019-11-20 14:19:46 GMT 54.188370 -5.274379 22,350 132 249 1216
2019-11-20 14:19:43 GMT 54.190994 -5.279254 22,450 132 249 1216
2019-11-20 14:19:40 GMT 54.192947 -5.283011 22,350 132 248 1088
2019-11-20 14:19:37 GMT 54.195278 -5.287413 22,350 132 249 1152
2019-11-20 14:19:34 GMT 54.197514 -5.291613 22,275 132 248 1088
2019-11-20 14:19:31 GMT 54.199886 -5.296137 22,225 132 247 1152
2019-11-20 14:19:28 GMT 54.202587 -5.301146 22,200 132 247 1152
2019-11-20 14:19:25 GMT 54.206730 -5.308982 22,000 132 246 1152
2019-11-20 14:19:19 GMT 54.209011 -5.313344 22,050 132 246 960
2019-11-20 14:19:16 GMT 54.213226 -5.321228 21,950 132 244 1024
2019-11-20 14:19:09 GMT 54.217117 -5.328526 21,850 132 243 960
2019-11-20 14:19:06 GMT 54.220917 -5.335589 21,750 132 241 960
2019-11-20 14:19:00 GMT 54.223663 -5.340611 21,600 132 239 960
2019-11-20 14:18:57 GMT 54.228561 -5.349557 21,625 132 239 1024
2019-11-20 14:18:54 GMT 54.228561 -5.349557 21,550 132 237 896
2019-11-20 14:18:51 GMT 54.230667 -5.353402 21,550 132 237 960
2019-11-20 14:18:48 GMT 54.234879 -5.361250 21,500 132 236 960
2019-11-20 14:18:45 GMT 54.234879 -5.361250 21,375 132 233 896
2019-11-20 14:18:42 GMT 54.236755 -5.364640 21,400 132 232 896
2019-11-20 14:18:39 GMT 54.239365 -5.369489 21,400 132 232 896
2019-11-20 14:18:35 GMT 54.244389 -5.378777 21,325 132 229 832
2019-11-20 14:18:29 GMT 54.249802 -5.388872 21,250 132 225 704
2019-11-20 14:18:25 GMT 54.249802 -5.388872 21,225 132 223 512
2019-11-20 14:18:22 GMT 54.251175 -5.391462 21,200 132 222 832
2019-11-20 14:18:19 GMT 54.253464 -5.395778 21,150 132 220 1536
2019-11-20 14:18:16 GMT 54.255432 -5.399545 21,050 132 219 1664
2019-11-20 14:18:13 GMT 54.257286 -5.403012 21,050 132 219 1472
2019-11-20 14:18:10 GMT 54.259567 -5.407455 20,925 131 218 1408
2019-11-20 14:18:07 GMT 54.261196 -5.410524 20,875 131 218 1408
2019-11-20 14:18:04 GMT 54.263443 -5.414847 20,825 131 218 1408
2019-11-20 14:18:01 GMT 54.265091 -5.417986 20,700 131 216 1280
2019-11-20 14:17:58 GMT 54.267517 -5.422616 20,675 131 216 1280
2019-11-20 14:17:55 GMT 54.269531 -5.426618 20,625 131 216 1280
2019-11-20 14:17:52 GMT 54.271343 -5.430073 20,550 131 215 1280
2019-11-20 14:17:48 GMT 54.274109 -5.435407 20,375 131 213 1792
2019-11-20 14:17:45 GMT 54.276093 -5.439202 20,350 131 214 1728
2019-11-20 14:17:42 GMT 54.278641 -5.444049 20,300 131 213 1728
2019-11-20 14:17:38 GMT 54.280888 -5.448386 20,125 131 213 1792
2019-11-20 14:17:35 GMT 54.282532 -5.451481 20,075 131 213 1728
2019-11-20 14:17:32 GMT 54.284798 -5.455877 19,975 131 213 1728
2019-11-20 14:17:29 GMT 54.286789 -5.459720 19,850 131 216 1792
2019-11-20 14:17:25 GMT 54.291092 -5.467960 19,400 131 214 1664
2019-11-20 14:17:22 GMT 54.291092 -5.467960 19,675 131 214 1728
2019-11-20 14:17:19 GMT 54.292740 -5.471111 19,600 131 214 1856
2019-11-20 14:17:16 GMT 54.295086 -5.475603 19,500 131 214 1792
2019-11-20 14:17:13 GMT 54.297043 -5.479350 19,375 131 215 1856
2019-11-20 14:17:10 GMT 54.299927 -5.484841 19,275 131 215 1856
2019-11-20 14:17:07 GMT 54.301254 -5.487429 19,225 132 215 1856
2019-11-20 14:17:04 GMT 54.302994 -5.490660 19,125 131 215 1984
2019-11-20 14:17:01 GMT 54.304768 -5.493996 19,050 132 215 1920
2019-11-20 14:16:58 GMT 54.307190 -5.498574 18,925 132 215 1920
2019-11-20 14:16:55 GMT 54.309052 -5.502070 18,850 132 215 1920
2019-11-20 14:16:52 GMT 54.310776 -5.505362 18,775 132 215 1920
2019-11-20 14:16:49 GMT 54.314545 -5.512473 18,575 132 216 1792
2019-11-20 14:16:46 GMT 54.315170 -5.513683 18,525 132 216 1792
2019-11-20 14:16:42 GMT 54.318375 -5.519580 18,475 132 216 1792
2019-11-20 14:16:37 GMT 54.321526 -5.525624 18,250 132 217 1856
2019-11-20 14:16:34 GMT 54.322861 -5.528062 18,125 132 216 1856
2019-11-20 14:16:31 GMT 54.325253 -5.532615 18,125 132 217 1856
2019-11-20 14:16:28 GMT 54.328091 -5.537942 17,900 132 216 1856
2019-11-20 14:16:22 GMT 54.332977 -5.547180 17,750 132 216 1792
2019-11-20 14:16:16 GMT 54.335815 -5.552619 17,550 131 214 1856
2019-11-20 14:16:13 GMT 54.337097 -5.555043 17,500 131 216 1792
2019-11-20 14:16:10 GMT 54.338985 -5.558666 17,450 131 216 1792
2019-11-20 14:16:07 GMT 54.341312 -5.563160 17,325 131 215 1792
2019-11-20 14:16:04 GMT 54.343361 -5.567072 17,300 131 215 1792
2019-11-20 14:16:01 GMT 54.344971 -5.570149 17,200 131 215 1792
2019-11-20 14:15:58 GMT 54.347782 -5.575562 17,025 131 213 1856
2019-11-20 14:15:55 GMT 54.349457 -5.578793 16,975 131 214 1856
2019-11-20 14:15:52 GMT 54.351692 -5.583219 16,800 131 213 1920
2019-11-20 14:15:49 GMT 54.353134 -5.585965 16,750 131 213 1920
2019-11-20 14:15:46 GMT 54.355499 -5.590425 16,725 131 213 1920
2019-11-20 14:15:43 GMT 54.356598 -5.592606 16,600 131 201 2048
2019-11-20 14:15:40 GMT 54.358677 -5.596535 16,525 131 213 1856
2019-11-20 14:15:37 GMT 54.361313 -5.601654 16,400 131 212 1856
2019-11-20 14:15:34 GMT 54.363098 -5.605047 16,250 132 211 1856
2019-11-20 14:15:30 GMT 54.366074 -5.610702 16,200 132 211 1856
2019-11-20 14:15:27 GMT 54.367310 -5.613044 16,150 132 210 1920
2019-11-20 14:15:24 GMT 54.371567 -5.621042 15,900 132 210 1920
2019-11-20 14:15:21 GMT 54.374458 -5.626581 15,800 132 208 1728
2019-11-20 14:15:16 GMT 54.374458 -5.626581 15,725 131 208 1792
2019-11-20 14:15:13 GMT 54.376785 -5.630978 15,650 132 207 1856
2019-11-20 14:15:10 GMT 54.378693 -5.634571 15,550 132 206 1536
2019-11-20 14:15:07 GMT 54.380928 -5.638816 15,475 132 204 1536
2019-11-20 14:15:04 GMT 54.384567 -5.645842 15,400 132 202 2112
2019-11-20 14:15:01 GMT 54.384567 -5.645842 15,300 131 201 2048
2019-11-20 14:14:56 GMT 54.387817 -5.651981 15,100 132 201 2304
2019-11-20 14:14:53 GMT 54.389786 -5.655697 15,025 132 201 2240
2019-11-20 14:14:49 GMT 54.392147 -5.660206 14,875 131 200 2432
2019-11-20 14:14:46 GMT 54.393814 -5.663371 14,750 131 201 2432
2019-11-20 14:14:43 GMT 54.395370 -5.666280 14,675 131 201 2432
2019-11-20 14:14:40 GMT 54.397202 -5.669915 14,450 131 201 2240
2019-11-20 14:14:36 GMT 54.399399 -5.674035 14,400 131 201 2176
2019-11-20 14:14:33 GMT 54.401691 -5.678517 14,275 131 201 1984
2019-11-20 14:14:30 GMT 54.405506 -5.685924 13,825 131 199 2368
2019-11-20 14:14:27 GMT 54.405506 -5.685924 14,050 131 199 2304
2019-11-20 14:14:24 GMT 54.407089 -5.689004 13,975 131 198 2368
2019-11-20 14:14:20 GMT 54.409279 -5.693248 13,475 131 198 2432
2019-11-20 14:14:17 GMT 54.411419 -5.697493 13,675 131 198 2432
2019-11-20 14:14:14 GMT 54.413177 -5.700854 13,550 131 199 2304
2019-11-20 14:14:10 GMT 54.415878 -5.706186 13,375 130 198 2304
2019-11-20 14:14:05 GMT 54.420273 -5.714991 13,125 130 197 2112
2019-11-20 14:13:59 GMT 54.422031 -5.718467 12,825 130 195 2752
2019-11-20 14:13:54 GMT 54.424805 -5.723958 12,825 130 195 2752
2019-11-20 14:13:50 GMT 54.427322 -5.728966 12,525 130 195 2688
2019-11-20 14:13:47 GMT 54.429668 -5.733615 12,350 130 195 2368
2019-11-20 14:13:44 GMT 54.430847 -5.736075 12,250 130 191 2048
2019-11-20 14:13:41 GMT 54.432648 -5.739691 12,100 129 194 2368
2019-11-20 14:13:38 GMT 54.434418 -5.743345 12,100 129 195 2432
2019-11-20 14:13:34 GMT 54.436569 -5.747869 11,925 129 193 2240
2019-11-20 14:13:31 GMT 54.438652 -5.752175 11,725 129 193 2240
2019-11-20 14:13:28 GMT 54.439774 -5.754412 11,725 130 192 2176
2019-11-20 14:13:25 GMT 54.441959 -5.758917 11,575 130 190 2176
2019-11-20 14:13:22 GMT 54.443680 -5.762329 11,425 131 189 2240
2019-11-20 14:13:19 GMT 54.445679 -5.766207 11,325 132 189 2304
2019-11-20 14:13:14 GMT 54.449871 -5.773898 11,125 134 187 2432
2019-11-20 14:13:08 GMT 54.451965 -5.777477 10,975 135 187 2432
2019-11-20 14:13:04 GMT 54.454247 -5.781056 10,725 138 186 2176
2019-11-20 14:13:01 GMT 54.456161 -5.783979 10,600 141 185 2368
2019-11-20 14:12:58 GMT 54.458450 -5.787210 10,525 142 184 2432
2019-11-20 14:12:53 GMT 54.461414 -5.790960 10,350 145 183 2304
2019-11-20 14:12:49 GMT 54.467194 -5.797712 10,125 145 183 2304
2019-11-20 14:12:46 GMT 54.467194 -5.797712 9,975 145 183 2240
2019-11-20 14:12:43 GMT 54.468842 -5.799731 9,925 145 183 2304
2019-11-20 14:12:40 GMT 54.472775 -5.804360 9,775 145 181 2368
2019-11-20 14:12:37 GMT 54.472775 -5.804360 9,700 145 181 2368
2019-11-20 14:12:34 GMT 54.474884 -5.806840 9,600 145 181 2368
2019-11-20 14:12:31 GMT 54.476944 -5.809344 9,400 145 180 2432
2019-11-20 14:12:28 GMT 54.479599 -5.812495 9,300 145 180 2432
2019-11-20 14:12:24 GMT 54.481899 -5.815263 9,175 145 180 2432
2019-11-20 14:12:21 GMT 54.484089 -5.817843 9,050 145 179 2624
2019-11-20 14:12:17 GMT 54.486511 -5.820734 8,875 145 179 2688
2019-11-20 14:12:14 GMT 54.488930 -5.823669 8,600 144 179 2688
2019-11-20 14:12:08 GMT 54.492416 -5.827843 8,500 144 180 2944
2019-11-20 14:12:05 GMT 54.495255 -5.831398 8,225 144 181 2944
2019-11-20 14:12:02 GMT 54.496750 -5.833158 8,175 144 182 2816
2019-11-20 14:11:59 GMT 54.498844 -5.835738 8,025 144 182 2688
2019-11-20 14:11:56 GMT 54.500568 -5.837818 7,900 144 182 2688
2019-11-20 14:11:53 GMT 54.502899 -5.840687 7,775 144 182 2624
2019-11-20 14:11:50 GMT 54.504944 -5.843145 7,700 144 182 2688
2019-11-20 14:11:47 GMT 54.507736 -5.846558 7,425 144 181 3008
2019-11-20 14:11:43 GMT 54.510017 -5.849304 7,225 144 182 3008
2019-11-20 14:11:40 GMT 54.511646 -5.851302 7,125 144 182 3136
2019-11-20 14:11:36 GMT 54.514812 -5.855214 6,975 144 183 3264
2019-11-20 14:11:33 GMT 54.516953 -5.857813 6,400 143 185 2816
2019-11-20 14:11:30 GMT 54.518738 -5.860075 6,575 143 186 2688
2019-11-20 14:11:26 GMT 54.521656 -5.863869 6,450 143 185 2624
2019-11-20 14:11:23 GMT 54.527664 -5.871627 6,125 142 184 2432
2019-11-20 14:11:18 GMT 54.527664 -5.871627 6,025 142 182 2368
2019-11-20 14:11:15 GMT 54.529057 -5.873441 5,975 142 181 2240
2019-11-20 14:11:12 GMT 54.531052 -5.876151 5,875 142 181 2240
2019-11-20 14:11:09 GMT 54.532967 -5.878684 5,650 141 178 2240
2019-11-20 14:11:05 GMT 54.535950 -5.882694 5,500 141 175 2176
2019-11-20 14:11:02 GMT 54.537460 -5.884794 5,175 141 170 2304
2019-11-20 14:10:57 GMT 54.542931 -5.892084 5,175 141 170 2432
2019-11-20 14:10:54 GMT 54.542931 -5.892084 5,125 141 170 2496
2019-11-20 14:10:45 GMT 54.548401 -5.899335 4,725 142 167 2560
2019-11-20 14:10:42 GMT 54.550598 -5.902082 4,575 143 168 2496
2019-11-20 14:10:36 GMT 54.553528 -5.905798 4,375 144 167 2368
2019-11-20 14:10:33 GMT 54.555771 -5.908544 4,275 146 165 2432
2019-11-20 14:10:30 GMT 54.557220 -5.910145 4,150 147 165 2560
2019-11-20 14:10:27 GMT 54.562248 -5.915222 3,850 153 162 2624
2019-11-20 14:10:23 GMT 54.562248 -5.915222 3,775 155 162 2944
2019-11-20 14:10:20 GMT 54.563923 -5.916554 3,700 156 162 3136
2019-11-20 14:10:16 GMT 54.566856 -5.918468 3,500 163 161 2688
2019-11-20 14:10:12 GMT 54.569595 -5.919611 3,275 172 163 2432
2019-11-20 14:10:06 GMT 54.574493 -5.920096 3,025 187 164 2752
2019-11-20 14:10:02 GMT 54.577286 -5.919207 2,925 193 166 2560
2019-11-20 14:09:59 GMT 54.579391 -5.917996 2,725 204 168 2432
2019-11-20 14:09:56 GMT 54.581753 -5.915971 2,600 212 170 2240
2019-11-20 14:09:53 GMT 54.584290 -5.913230 2,450 215 170 2752
2019-11-20 14:09:49 GMT 54.586224 -5.910894 2,300 215 168 2752
2019-11-20 14:09:44 GMT 54.589920 -5.906525 2,075 215 168 2752
2019-11-20 14:09:34 GMT 54.596279 -5.899159 1,700 214 163 1344
2019-11-20 14:09:31 GMT 54.597397 -5.897827 1,650 214 158 1216
2019-11-20 14:09:21 GMT 54.603725 -5.890503 1,400 215 143 2368
2019-11-20 14:09:18 GMT 54.605713 -5.888106 1,225 217 140 3072
2019-11-20 14:09:12 GMT 54.608368 -5.884714 950 218 142 2688
2019-11-20 14:08:55 GMT 54.617157 -5.873646 275 213 90
2019-11-20 14:08:44 GMT 54.622009 -5.867844 0 213 90

Making use of Plane Finder data

You are free to use the raw flight data, aircraft information and images provided in this report for your own purposes provided the data is correctly attributed to Plane Finder. We ask that you please credit Plane Finder and link to planefinder.net in close proximity to the content.

Optionally one of the following logos (no smaller then 150x24px) can be used and must link to planefinder.net

Embedding the Plane Finder map

You are welcome to embed the Plane Finder playback map on your website to offer visitors a more interactive experience. We suggest using the following HTML code:

<iframe src="//planefinder.net/data/report/BE557-G-PRPO-7700-squawk-2019-11-20/map" width="800" height="600" seamless="seamless"></iframe>

Where our data comes from

Plane Finder has a global network of data feeds and antenna radars that receive data broadcast directly from aircraft. The primary technologies used are ADS-B and MLAT. We also show feeds from the FAA and a FLARM glider feed.

Click here to find out more about the Plane Finder network.

How we collect our data